Time;durP1;ratioP1;P1;durP2;ratioP2;P2;SDS_P1;SDS_P2;PMS_P1;PMS_P2;Temp;Humidity;BMP_temperature;BMP_pressure;BME280_temperature;BME280_humidity;BME280_pressure;Samples;Min_cycle;Max_cycle;Signal;HPM_P1;HPM_P2
2022/02/11 00:09:00;;;;;;;2.35;1.63;;;23.60;30.40;;;;;;5032860;28;20724;-76
2022/02/11 00:11:36;;;;;;;2.20;1.60;;;23.60;30.40;;;;;;5032181;28;20393;-71
2022/02/11 00:14:04;;;;;;;2.63;1.42;;;23.60;30.40;;;;;;5032777;28;20403;-69
2022/02/11 00:16:31;;;;;;;3.00;1.60;;;23.60;30.40;;;;;;5032558;28;20405;-66
2022/02/11 00:19:00;;;;;;;2.78;1.52;;;23.60;30.50;;;;;;5031153;28;20445;-67
2022/02/11 00:21:30;;;;;;;3.30;1.45;;;23.60;30.40;;;;;;5031168;28;20397;-68
2022/02/11 00:23:57;;;;;;;2.40;1.55;;;23.50;30.30;;;;;;5032378;28;20894;-67
2022/02/11 00:26:33;;;;;;;2.45;1.50;;;23.50;30.30;;;;;;5032219;28;20427;-67
2022/02/11 00:34:27;;;;;;;2.50;1.50;;;23.50;30.40;;;;;;5032222;28;20391;-67
2022/02/11 00:37:20;;;;;;;2.40;1.40;;;23.50;30.40;;;;;;5031767;28;20429;-72
2022/02/11 00:40:05;;;;;;;1.92;1.42;;;23.50;30.30;;;;;;5031752;28;20771;-75
2022/02/11 00:43:25;;;;;;;2.55;1.70;;;23.50;30.30;;;;;;5032042;28;20758;-75
2022/02/11 01:04:23;;;;;;;2.40;1.45;;;23.40;30.20;;;;;;5031011;28;20393;-73
2022/02/11 01:06:49;;;;;;;2.37;1.50;;;23.30;30.10;;;;;;5031426;28;20425;-75
2022/02/11 01:09:15;;;;;;;2.50;1.58;;;23.30;30.20;;;;;;5030613;28;20494;-75
2022/02/11 01:11:50;;;;;;;2.20;1.50;;;23.30;30.30;;;;;;5029736;28;20794;-73
2022/02/11 01:14:17;;;;;;;2.20;1.38;;;23.30;30.20;;;;;;5031765;28;20391;-76
2022/02/11 01:19:20;;;;;;;2.28;1.52;;;23.30;30.30;;;;;;5031562;28;20394;-75
2022/02/11 01:21:58;;;;;;;3.08;1.60;;;23.30;30.20;;;;;;5030614;28;20402;-75
2022/02/11 01:35:33;;;;;;;2.55;1.63;;;23.20;30.10;;;;;;5031537;28;20390;-76
2022/02/11 01:38:25;;;;;;;2.10;1.42;;;23.20;30.10;;;;;;5031365;28;20415;-73
2022/02/11 02:24:56;;;;;;;2.70;1.40;;;23.10;30.10;;;;;;5012763;28;20393;-75
2022/02/11 02:57:23;;;;;;;1.90;1.20;;;23.00;30.10;;;;;;5033697;28;20980;-67
2022/02/11 03:34:53;;;;;;;1.90;1.17;;;22.80;30.10;;;;;;5032812;28;20406;-70
2022/02/11 03:48:58;;;;;;;1.80;1.20;;;22.80;30.10;;;;;;5032623;28;20506;-68
2022/02/11 04:57:00;;;;;;;5.78;2.00;;;23.00;33.00;;;;;;5031141;28;20398;-68
2022/02/11 04:59:38;;;;;;;4.88;1.92;;;23.00;33.10;;;;;;5031609;28;20426;-71
2022/02/11 05:02:05;;;;;;;4.82;2.05;;;22.90;32.20;;;;;;5031603;28;20553;-70
2022/02/11 05:04:33;;;;;;;3.65;2.20;;;22.90;33.10;;;;;;5031536;28;20446;-73
2022/02/11 05:07:00;;;;;;;4.25;2.00;;;23.00;33.10;;;;;;5029021;28;20895;-70
2022/02/11 05:09:28;;;;;;;4.43;2.00;;;23.00;33.10;;;;;;5031042;28;20930;-70
2022/02/11 05:11:55;;;;;;;6.90;2.45;;;23.00;32.00;;;;;;5030770;28;20740;-66
2022/02/11 05:14:21;;;;;;;3.85;2.10;;;23.00;32.30;;;;;;5031249;28;20395;-74
2022/02/11 05:16:47;;;;;;;4.20;2.17;;;23.00;32.00;;;;;;5029923;28;20478;-65
2022/02/11 05:19:13;;;;;;;3.78;1.95;;;22.90;31.70;;;;;;5031102;28;20490;-67
2022/02/11 05:21:39;;;;;;;3.63;2.00;;;22.90;31.50;;;;;;5031344;28;20387;-67
2022/02/11 05:24:07;;;;;;;4.10;2.10;;;22.90;31.00;;;;;;5031294;28;20836;-68
2022/02/11 05:26:32;;;;;;;3.55;2.15;;;23.00;31.10;;;;;;5029869;28;20394;-66
2022/02/11 05:29:02;;;;;;;4.40;2.20;;;22.90;30.90;;;;;;5029200;28;20794;-65
2022/02/11 05:31:28;;;;;;;3.33;2.22;;;22.90;30.80;;;;;;5028317;28;20478;-69
2022/02/11 05:33:53;;;;;;;4.28;2.30;;;22.90;30.60;;;;;;5028004;28;20411;-68
2022/02/11 05:36:19;;;;;;;4.27;2.20;;;22.90;30.60;;;;;;5031138;28;20454;-67
2022/02/11 05:38:45;;;;;;;3.85;2.20;;;22.90;30.90;;;;;;5029677;28;20457;-68
2022/02/11 05:41:11;;;;;;;6.43;2.53;;;22.90;31.40;;;;;;5030562;28;20386;-67
2022/02/11 05:43:40;;;;;;;6.15;2.53;;;22.90;31.50;;;;;;5031180;28;20482;-68
2022/02/11 05:46:07;;;;;;;5.28;2.70;;;22.90;31.40;;;;;;5031164;28;20394;-67
2022/02/11 05:48:35;;;;;;;5.10;2.65;;;22.90;31.70;;;;;;5031207;28;20993;-68
2022/02/11 05:51:01;;;;;;;6.05;2.65;;;22.90;31.90;;;;;;5033455;28;20399;-67
2022/02/11 05:53:27;;;;;;;4.43;2.75;;;22.80;31.70;;;;;;5035488;28;20387;-67
2022/02/11 05:55:52;;;;;;;7.03;2.78;;;22.90;31.80;;;;;;5033554;28;20440;-67
2022/02/11 05:58:18;;;;;;;7.27;2.77;;;22.90;31.70;;;;;;5033375;28;20391;-67
2022/02/11 06:00:43;;;;;;;5.65;2.58;;;22.90;32.40;;;;;;5033396;28;20751;-77
2022/02/11 06:03:09;;;;;;;6.28;2.78;;;22.90;32.30;;;;;;5034749;28;20399;-77
2022/02/11 06:05:35;;;;;;;4.77;2.77;;;22.90;32.20;;;;;;5033593;28;20413;-67
2022/02/11 06:08:00;;;;;;;4.82;2.80;;;23.00;31.80;;;;;;5034245;28;20461;-68
2022/02/11 06:10:26;;;;;;;5.87;2.83;;;23.00;32.00;;;;;;5033352;28;20401;-67
2022/02/11 06:12:51;;;;;;;5.90;2.80;;;23.00;31.40;;;;;;5032812;28;20405;-67
2022/02/11 06:15:17;;;;;;;4.27;2.27;;;22.90;31.90;;;;;;5034336;28;20886;-67
2022/02/11 06:17:43;;;;;;;5.70;2.90;;;22.90;31.40;;;;;;5027791;28;20513;-68
2022/02/11 06:20:09;;;;;;;8.50;3.25;;;22.90;31.60;;;;;;5017173;28;20479;-67
2022/02/11 06:22:37;;;;;;;7.80;3.45;;;22.90;31.40;;;;;;5013261;28;21077;-67
2022/02/11 06:25:03;;;;;;;5.88;3.28;;;22.90;31.30;;;;;;5014296;28;20400;-69
2022/02/11 06:27:29;;;;;;;6.13;3.10;;;22.90;31.20;;;;;;5030825;28;20763;-67
2022/02/11 06:29:55;;;;;;;5.83;3.27;;;22.90;31.70;;;;;;5034406;28;20402;-67
2022/02/11 06:32:20;;;;;;;5.40;2.90;;;22.90;31.00;;;;;;5033559;28;20456;-67
2022/02/11 06:34:46;;;;;;;5.15;3.00;;;22.90;30.90;;;;;;5033582;28;20910;-67
2022/02/11 06:37:12;;;;;;;4.87;3.00;;;22.90;30.90;;;;;;5033790;28;20398;-65
2022/02/11 06:39:37;;;;;;;6.40;3.28;;;22.90;30.90;;;;;;5033986;28;20495;-65
2022/02/11 06:42:03;;;;;;;4.80;2.80;;;22.90;31.00;;;;;;5032805;28;20395;-65
2022/02/11 06:44:29;;;;;;;5.63;2.97;;;22.90;30.90;;;;;;5034020;28;20392;-64
2022/02/11 06:46:55;;;;;;;4.22;2.80;;;22.90;30.90;;;;;;5033709;28;20732;-64
2022/02/11 06:49:24;;;;;;;4.67;2.80;;;22.80;30.90;;;;;;5032513;28;20411;-65
2022/02/11 06:51:52;;;;;;;4.30;2.63;;;22.80;31.10;;;;;;5029871;28;20470;-65
2022/02/11 06:54:18;;;;;;;4.53;2.80;;;22.70;31.50;;;;;;5022083;28;20415;-65
2022/02/11 06:56:44;;;;;;;4.38;2.30;;;22.70;31.50;;;;;;5032104;28;21062;-64
2022/02/11 06:59:10;;;;;;;5.88;2.63;;;22.70;31.30;;;;;;5031605;28;20391;-68
2022/02/11 07:01:36;;;;;;;3.30;2.37;;;22.70;31.20;;;;;;5031630;28;20395;-65
2022/02/11 07:04:02;;;;;;;4.00;2.50;;;22.70;31.10;;;;;;5032316;28;20403;-64
2022/02/11 07:06:27;;;;;;;4.15;2.45;;;22.70;31.10;;;;;;5032337;28;20398;-65
2022/02/11 07:08:53;;;;;;;3.78;2.50;;;22.70;31.00;;;;;;5031393;28;20457;-64
2022/02/11 07:11:19;;;;;;;4.03;2.45;;;22.70;31.00;;;;;;5032062;28;20387;-68
2022/02/11 07:13:45;;;;;;;3.83;2.40;;;22.70;31.00;;;;;;5032017;28;20406;-72
2022/02/11 07:16:11;;;;;;;4.38;2.47;;;22.70;30.90;;;;;;5029474;28;20383;-70
2022/02/11 07:18:37;;;;;;;4.37;2.67;;;22.70;30.90;;;;;;5032249;28;20444;-66
2022/02/11 07:21:02;;;;;;;3.70;2.30;;;22.70;30.90;;;;;;5030186;28;20403;-66
2022/02/11 07:23:28;;;;;;;4.10;2.60;;;22.70;30.80;;;;;;5031725;28;20440;-66
2022/02/11 07:25:54;;;;;;;5.33;2.57;;;22.60;31.00;;;;;;5031002;28;20802;-74
2022/02/11 07:28:20;;;;;;;4.60;2.63;;;22.70;31.30;;;;;;5027955;28;20420;-66
2022/02/11 07:30:48;;;;;;;5.07;2.58;;;22.70;32.00;;;;;;5029939;28;20404;-65
2022/02/11 07:33:14;;;;;;;4.80;2.65;;;22.70;32.00;;;;;;5028623;28;20419;-65
2022/02/11 07:35:40;;;;;;;5.00;2.72;;;22.70;32.10;;;;;;5030238;28;20395;-66
2022/02/11 07:38:06;;;;;;;4.70;2.83;;;22.70;32.10;;;;;;5028321;28;20478;-68
2022/02/11 07:40:31;;;;;;;5.47;2.78;;;22.80;32.30;;;;;;5028126;28;20917;-66
2022/02/11 07:42:57;;;;;;;5.07;2.60;;;22.70;31.80;;;;;;5030358;28;20470;-76
2022/02/11 07:45:24;;;;;;;6.03;2.63;;;22.80;32.60;;;;;;5030305;28;20438;-66
2022/02/11 07:47:51;;;;;;;3.30;2.58;;;22.80;32.50;;;;;;5030840;28;20489;-66
2022/02/11 07:50:16;;;;;;;3.60;2.50;;;22.80;32.40;;;;;;5030943;28;20839;-66
2022/02/11 07:52:42;;;;;;;3.23;2.43;;;22.80;32.60;;;;;;5031477;28;20398;-65
2022/02/11 07:55:08;;;;;;;4.45;2.63;;;22.80;32.50;;;;;;5030645;28;20391;-66
2022/02/11 07:57:33;;;;;;;4.00;2.70;;;22.80;32.40;;;;;;5030587;28;20391;-66
2022/02/11 08:00:04;;;;;;;5.38;2.65;;;22.90;32.50;;;;;;5028315;28;20391;-68
2022/02/11 08:02:37;;;;;;;4.00;2.42;;;22.80;32.40;;;;;;5030578;28;20467;-66
2022/02/11 08:05:03;;;;;;;4.03;2.40;;;22.80;32.50;;;;;;5028528;28;20391;-67
2022/02/11 08:07:29;;;;;;;3.63;2.30;;;22.90;32.20;;;;;;5028880;28;20415;-68
2022/02/11 08:09:55;;;;;;;3.95;2.33;;;22.90;32.60;;;;;;5030581;28;20867;-66
2022/02/11 08:12:21;;;;;;;5.00;2.30;;;22.90;32.40;;;;;;5030265;28;20906;-66
2022/02/11 08:14:47;;;;;;;3.42;2.20;;;22.90;32.40;;;;;;5028688;28;20454;-67
2022/02/11 08:17:12;;;;;;;3.10;2.20;;;22.90;32.20;;;;;;5030869;28;20387;-66
2022/02/11 08:19:38;;;;;;;3.88;2.00;;;22.90;31.80;;;;;;5030384;28;20419;-67
2022/02/11 08:22:04;;;;;;;5.30;2.25;;;22.90;32.20;;;;;;5028659;28;20398;-66
2022/02/11 08:24:29;;;;;;;3.20;2.33;;;22.90;32.40;;;;;;5028016;28;20432;-66
2022/02/11 08:26:55;;;;;;;3.13;2.20;;;22.90;32.60;;;;;;5029129;28;20434;-67
2022/02/11 08:29:25;;;;;;;3.30;2.30;;;22.90;32.50;;;;;;5029065;28;20431;-66
2022/02/11 08:31:54;;;;;;;3.35;2.03;;;22.90;32.60;;;;;;5029810;28;20391;-67
2022/02/11 08:34:24;;;;;;;3.92;2.20;;;22.90;32.30;;;;;;5027984;28;20944;-74
2022/02/11 08:36:50;;;;;;;2.97;2.10;;;22.90;32.20;;;;;;5031745;28;20437;-69
2022/02/11 08:39:18;;;;;;;3.08;2.10;;;22.90;32.50;;;;;;5031451;28;20450;-66
2022/02/11 08:41:43;;;;;;;3.27;2.00;;;22.90;32.60;;;;;;5030841;28;20402;-65
2022/02/11 08:44:09;;;;;;;3.65;2.10;;;22.80;32.50;;;;;;5031531;28;20391;-66
2022/02/11 08:46:35;;;;;;;4.00;2.20;;;22.80;31.90;;;;;;5029566;28;20408;-66
2022/02/11 08:49:01;;;;;;;3.65;2.15;;;22.70;31.70;;;;;;5031579;28;20415;-66
2022/02/11 08:51:29;;;;;;;3.33;2.20;;;22.70;31.60;;;;;;5031602;28;20423;-65
2022/02/11 08:53:56;;;;;;;3.75;2.00;;;22.60;31.50;;;;;;5031778;28;20736;-66
2022/02/11 08:56:22;;;;;;;5.28;2.20;;;22.70;31.70;;;;;;5031664;28;20387;-70
2022/02/11 08:58:48;;;;;;;3.03;1.80;;;22.70;31.90;;;;;;5031577;28;20425;-66
2022/02/11 09:01:13;;;;;;;3.60;2.10;;;22.70;31.70;;;;;;5031170;28;20391;-67
2022/02/11 09:03:42;;;;;;;3.10;1.90;;;22.60;31.70;;;;;;5031551;28;20402;-69
2022/02/11 09:06:08;;;;;;;3.95;2.00;;;22.60;31.70;;;;;;5031665;28;20486;-68
2022/02/11 09:08:35;;;;;;;3.63;1.90;;;22.60;31.60;;;;;;5031401;28;20415;-67
2022/02/11 09:11:02;;;;;;;3.27;1.73;;;22.60;31.60;;;;;;5031118;28;20934;-66
2022/02/11 09:13:28;;;;;;;3.00;1.87;;;22.60;31.60;;;;;;5031189;28;20395;-66
2022/02/11 09:15:55;;;;;;;2.78;1.90;;;22.60;31.50;;;;;;5031453;28;20390;-65
2022/02/11 09:18:22;;;;;;;3.05;1.73;;;22.60;31.40;;;;;;5030044;28;20748;-66
2022/02/11 09:20:48;;;;;;;2.97;1.60;;;22.60;31.80;;;;;;5030377;28;20387;-66
2022/02/11 09:23:23;;;;;;;3.30;1.60;;;22.50;31.60;;;;;;5029614;28;20743;-65
2022/02/11 09:25:49;;;;;;;2.22;1.40;;;22.60;31.60;;;;;;5030758;28;20391;-66
2022/02/11 09:28:15;;;;;;;3.83;1.70;;;22.50;31.60;;;;;;5031044;28;20894;-66
2022/02/11 09:30:41;;;;;;;3.63;1.60;;;22.60;31.40;;;;;;5029855;28;20383;-65
2022/02/11 09:33:08;;;;;;;4.75;1.90;;;22.70;31.30;;;;;;5030951;28;20395;-65
2022/02/11 09:35:35;;;;;;;4.53;1.63;;;22.70;31.30;;;;;;5031229;28;20387;-65
2022/02/11 09:38:00;;;;;;;2.95;1.70;;;22.70;31.30;;;;;;5029754;28;20423;-65
2022/02/11 09:40:27;;;;;;;4.73;1.87;;;22.70;32.00;;;;;;5031254;28;20751;-65
2022/02/11 09:42:55;;;;;;;4.03;1.63;;;22.70;31.40;;;;;;5031213;28;20418;-65
2022/02/11 09:45:22;;;;;;;3.55;1.70;;;22.70;31.30;;;;;;5030702;28;20911;-65
2022/02/11 09:47:50;;;;;;;3.13;1.67;;;22.60;31.20;;;;;;5031060;28;20411;-66
2022/02/11 09:50:18;;;;;;;3.70;1.70;;;22.60;31.20;;;;;;5030800;28;20756;-65
2022/02/11 09:52:50;;;;;;;3.77;1.43;;;22.60;31.20;;;;;;5031116;28;20501;-65
2022/02/11 09:58:17;;;;;;;4.22;1.70;;;22.60;31.20;;;;;;5030493;28;20463;-65
2022/02/11 10:00:48;;;;;;;3.15;1.63;;;22.60;31.20;;;;;;5030609;28;20402;-66
2022/02/11 10:03:16;;;;;;;3.05;1.60;;;22.60;31.20;;;;;;5030423;28;20387;-65
2022/02/11 10:05:42;;;;;;;4.00;1.80;;;22.50;31.10;;;;;;5031022;28;20383;-66
2022/02/11 10:08:08;;;;;;;2.85;1.50;;;22.50;31.20;;;;;;5029570;28;20465;-66
2022/02/11 10:10:40;;;;;;;3.70;1.60;;;22.50;31.10;;;;;;5031017;28;20480;-65
2022/02/11 10:13:06;;;;;;;3.58;1.65;;;22.50;31.20;;;;;;5030331;28;20517;-65
2022/02/11 10:15:34;;;;;;;4.32;2.25;;;22.50;31.10;;;;;;5030731;28;20383;-65
2022/02/11 10:18:00;;;;;;;2.97;1.60;;;22.50;31.10;;;;;;5030944;28;20486;-66
2022/02/11 10:20:29;;;;;;;4.25;1.70;;;22.50;31.00;;;;;;5029737;28;20910;-65
2022/02/11 10:23:16;;;;;;;2.53;1.45;;;22.50;31.00;;;;;;5030867;28;20395;-65
2022/02/11 10:26:07;;;;;;;2.45;1.58;;;22.50;31.00;;;;;;5030927;28;20402;-66
2022/02/11 10:28:36;;;;;;;3.25;1.60;;;22.50;31.00;;;;;;5029502;28;20422;-65
2022/02/11 10:31:08;;;;;;;2.80;1.38;;;22.50;31.00;;;;;;5029503;28;20402;-65
2022/02/11 10:34:04;;;;;;;3.80;1.50;;;22.50;31.00;;;;;;5030594;28;20403;-67
2022/02/11 10:36:31;;;;;;;2.25;1.30;;;22.50;31.00;;;;;;5031999;28;20480;-65
2022/02/11 10:39:00;;;;;;;2.55;1.45;;;22.50;31.00;;;;;;5034192;28;20407;-66
2022/02/11 10:41:26;;;;;;;2.70;1.42;;;22.40;31.00;;;;;;5033799;28;20395;-66
2022/02/11 10:43:58;;;;;;;2.80;1.20;;;22.50;31.00;;;;;;5033024;28;20391;-66
2022/02/11 10:46:24;;;;;;;2.90;1.55;;;22.40;31.00;;;;;;5034131;28;20399;-66
2022/02/11 10:48:50;;;;;;;3.05;1.48;;;22.40;31.00;;;;;;5034013;28;20418;-65
2022/02/11 10:51:25;;;;;;;2.67;1.30;;;22.40;31.10;;;;;;5033501;28;20383;-66
2022/02/11 10:53:51;;;;;;;2.30;1.20;;;22.40;31.00;;;;;;5032658;28;20478;-65
2022/02/11 10:56:17;;;;;;;1.90;1.23;;;22.40;31.00;;;;;;5033974;28;20482;-65
2022/02/11 10:59:03;;;;;;;2.33;1.30;;;22.40;31.00;;;;;;5033851;28;20873;-66
2022/02/11 11:01:29;;;;;;;2.63;1.20;;;22.40;30.90;;;;;;5031899;28;20528;-65
2022/02/11 11:03:57;;;;;;;1.70;1.20;;;22.40;30.90;;;;;;5033744;28;20448;-66
2022/02/11 11:06:25;;;;;;;1.98;1.30;;;22.40;30.90;;;;;;5033712;28;20379;-65
2022/02/11 11:08:54;;;;;;;1.83;1.30;;;22.40;30.90;;;;;;5033536;28;20422;-66
2022/02/11 11:11:21;;;;;;;2.10;1.30;;;22.40;31.00;;;;;;5033219;28;20510;-65
2022/02/11 11:13:49;;;;;;;1.92;1.05;;;22.40;30.90;;;;;;5033615;28;20394;-65
2022/02/11 11:16:17;;;;;;;1.65;1.13;;;22.40;30.90;;;;;;5033250;28;20470;-65
2022/02/11 11:18:44;;;;;;;1.85;1.05;;;22.40;30.90;;;;;;5033528;28;20402;-65
2022/02/11 11:21:11;;;;;;;1.75;1.20;;;22.40;30.90;;;;;;5033086;28;20394;-65
2022/02/11 11:23:50;;;;;;;1.80;1.10;;;22.40;30.90;;;;;;5031860;28;20506;-65
2022/02/11 11:26:16;;;;;;;2.33;1.02;;;22.40;31.00;;;;;;5033284;28;20414;-68
2022/02/11 11:28:43;;;;;;;1.98;1.10;;;22.40;31.00;;;;;;5033151;28;20895;-66
2022/02/11 11:31:26;;;;;;;2.10;1.00;;;22.40;30.90;;;;;;5032688;28;20391;-65
2022/02/11 11:34:12;;;;;;;1.73;1.00;;;22.40;30.90;;;;;;5033268;28;20453;-65
2022/02/11 11:36:41;;;;;;;2.27;1.23;;;22.40;30.90;;;;;;5032853;28;20426;-65
2022/02/11 11:39:07;;;;;;;2.60;1.20;;;22.30;31.00;;;;;;5032626;28;20907;-65
2022/02/11 11:41:35;;;;;;;4.07;1.10;;;22.40;31.30;;;;;;5032895;28;20423;-65
2022/02/11 11:44:22;;;;;;;4.28;1.38;;;22.40;31.40;;;;;;5033031;28;20775;-66
2022/02/11 11:46:52;;;;;;;6.35;1.27;;;22.30;31.60;;;;;;5032982;28;20474;-65
2022/02/11 11:49:21;;;;;;;3.10;0.90;;;22.40;31.80;;;;;;5031907;28;20425;-66
2022/02/11 11:51:47;;;;;;;4.40;1.05;;;22.30;31.70;;;;;;5032852;28;20770;-65
2022/02/11 11:54:20;;;;;;;4.43;1.38;;;22.40;32.20;;;;;;5032902;28;20490;-66
2022/02/11 11:57:05;;;;;;;3.75;1.40;;;22.40;32.90;;;;;;5032936;28;20410;-66
2022/02/11 11:59:41;;;;;;;3.80;1.30;;;22.30;32.00;;;;;;5031033;28;20401;-66
2022/02/11 12:02:08;;;;;;;3.60;1.27;;;22.30;31.40;;;;;;5032761;28;20402;-66
2022/02/11 12:04:39;;;;;;;6.18;1.30;;;22.30;31.40;;;;;;5032550;28;20422;-66
2022/02/11 12:07:06;;;;;;;2.53;1.30;;;22.30;31.60;;;;;;5031262;28;20755;-66
2022/02/11 12:09:32;;;;;;;4.78;1.33;;;22.30;31.50;;;;;;5032195;28;20395;-66
2022/02/11 12:12:02;;;;;;;4.57;1.30;;;22.30;31.60;;;;;;5032506;28;20379;-66
2022/02/11 12:14:30;;;;;;;2.97;1.10;;;22.30;31.50;;;;;;5032473;28;20860;-66
2022/02/11 12:16:57;;;;;;;2.80;1.05;;;22.30;32.10;;;;;;5032461;28;20473;-66
2022/02/11 12:19:24;;;;;;;3.25;1.17;;;22.30;32.10;;;;;;5030696;28;20407;-66
2022/02/11 12:21:50;;;;;;;3.30;1.20;;;22.30;32.20;;;;;;5029683;28;20534;-66
2022/02/11 12:29:55;;;;;;;3.67;1.02;;;22.30;32.00;;;;;;5031118;28;20398;-66
2022/02/11 12:32:43;;;;;;;3.92;1.30;;;22.30;31.90;;;;;;5030878;28;20457;-66
2022/02/11 12:35:14;;;;;;;3.65;1.30;;;22.30;32.20;;;;;;5028481;28;20387;-66
2022/02/11 12:37:42;;;;;;;3.95;1.10;;;22.30;32.10;;;;;;5030626;28;20418;-66
2022/02/11 12:40:28;;;;;;;2.83;1.00;;;22.40;32.30;;;;;;5032151;28;20430;-66
2022/02/11 12:43:00;;;;;;;3.97;1.05;;;22.40;31.30;;;;;;5032338;28;20887;-67
2022/02/11 12:45:35;;;;;;;4.80;1.02;;;22.40;31.20;;;;;;5031442;28;20399;-76
2022/02/11 12:48:02;;;;;;;3.38;1.17;;;22.30;31.70;;;;;;5031856;28;20480;-66
2022/02/11 12:50:37;;;;;;;5.72;1.35;;;22.40;32.50;;;;;;5030547;28;20396;-66
2022/02/11 12:53:06;;;;;;;2.20;0.90;;;22.50;32.70;;;;;;5031833;28;20395;-67
2022/02/11 12:55:36;;;;;;;2.58;1.00;;;22.60;32.20;;;;;;5031295;28;20391;-68
2022/02/11 12:58:04;;;;;;;5.05;1.10;;;22.60;32.30;;;;;;5031874;28;20398;-66
2022/02/11 13:00:32;;;;;;;2.65;1.05;;;22.70;32.40;;;;;;5030847;28;20395;-67
2022/02/11 13:03:01;;;;;;;3.80;1.20;;;22.70;32.20;;;;;;5031801;28;20391;-67
2022/02/11 13:05:28;;;;;;;2.60;0.93;;;22.70;32.30;;;;;;5031155;28;20387;-66
2022/02/11 13:07:58;;;;;;;2.53;0.93;;;22.70;32.10;;;;;;5031498;28;20947;-68
2022/02/11 13:10:26;;;;;;;3.50;1.20;;;22.70;32.60;;;;;;5031419;28;20395;-66
2022/02/11 13:13:01;;;;;;;3.40;1.10;;;22.70;33.90;;;;;;5031875;28;20383;-66
2022/02/11 13:15:32;;;;;;;2.00;0.90;;;22.80;32.90;;;;;;5029261;28;20427;-66
2022/02/11 13:18:13;;;;;;;2.42;1.00;;;22.80;32.90;;;;;;5024903;28;20395;-66
2022/02/11 13:20:45;;;;;;;2.10;0.77;;;22.80;32.60;;;;;;5030077;28;20415;-66
2022/02/11 13:23:15;;;;;;;2.80;0.90;;;22.80;32.20;;;;;;5029057;28;20399;-66
2022/02/11 13:25:42;;;;;;;5.45;1.00;;;22.80;31.90;;;;;;5029769;28;20391;-66
2022/02/11 13:28:12;;;;;;;5.55;1.17;;;22.90;32.00;;;;;;5031414;28;20450;-65
2022/02/11 13:30:43;;;;;;;3.55;0.88;;;22.90;32.90;;;;;;5031281;28;20383;-67
2022/02/11 13:33:24;;;;;;;3.40;0.88;;;23.00;33.00;;;;;;5031164;28;20391;-67
2022/02/11 13:35:52;;;;;;;4.82;1.20;;;23.00;32.70;;;;;;5025593;28;20395;-66
2022/02/11 13:38:26;;;;;;;7.20;1.30;;;23.10;33.30;;;;;;5028400;28;20407;-66
2022/02/11 13:41:07;;;;;;;3.30;0.88;;;23.20;33.40;;;;;;5028627;28;20403;-66
2022/02/11 13:43:53;;;;;;;4.15;0.80;;;23.20;33.30;;;;;;5028432;28;20537;-65
2022/02/11 13:46:30;;;;;;;2.38;0.68;;;23.20;33.20;;;;;;5029674;28;20395;-65
2022/02/11 13:49:01;;;;;;;6.40;1.30;;;23.30;33.20;;;;;;5030920;28;20955;-66
2022/02/11 13:51:26;;;;;;;4.25;0.70;;;23.40;33.10;;;;;;5029424;28;20478;-65
2022/02/11 13:53:53;;;;;;;2.85;0.80;;;23.40;33.00;;;;;;5031119;28;20816;-65
2022/02/11 13:56:43;;;;;;;3.25;1.00;;;23.70;32.80;;;;;;5031063;28;20403;-65
2022/02/11 13:59:15;;;;;;;2.70;0.77;;;23.90;32.00;;;;;;5030472;28;20474;-66
2022/02/11 14:01:46;;;;;;;1.63;0.80;;;24.10;31.80;;;;;;5030857;28;20879;-66
2022/02/11 14:04:14;;;;;;;3.88;0.70;;;24.20;31.90;;;;;;5031056;28;20399;-65
2022/02/11 14:06:56;;;;;;;2.35;0.60;;;24.30;31.60;;;;;;5031030;28;20395;-66
2022/02/11 14:09:31;;;;;;;1.92;0.60;;;24.40;31.90;;;;;;5030423;28;20774;-66
2022/02/11 14:11:59;;;;;;;4.67;0.60;;;24.50;31.90;;;;;;5031740;28;20387;-66
2022/02/11 14:14:25;;;;;;;2.58;0.75;;;24.60;31.80;;;;;;5033384;28;20395;-68
2022/02/11 14:16:52;;;;;;;2.63;0.73;;;24.70;31.70;;;;;;5029624;28;20399;-66
2022/02/11 14:19:24;;;;;;;4.72;0.80;;;24.70;31.80;;;;;;5028208;28;20506;-67
2022/02/11 14:21:52;;;;;;;3.13;0.77;;;24.90;31.60;;;;;;5034576;28;20738;-67
2022/02/11 14:24:20;;;;;;;2.07;0.63;;;24.90;31.50;;;;;;5034624;28;20435;-66
2022/02/11 14:26:46;;;;;;;1.58;0.70;;;24.90;31.20;;;;;;5034511;28;20394;-67
2022/02/11 14:29:12;;;;;;;1.95;0.60;;;24.90;31.20;;;;;;5034398;28;20806;-67
2022/02/11 14:31:40;;;;;;;1.37;0.73;;;24.90;31.10;;;;;;5033682;28;20387;-66
2022/02/11 14:34:06;;;;;;;2.90;0.57;;;24.90;31.10;;;;;;5034279;28;20414;-67
2022/02/11 14:36:32;;;;;;;3.05;0.70;;;24.80;31.00;;;;;;5034218;28;20414;-67
2022/02/11 14:38:58;;;;;;;3.07;0.70;;;24.80;31.10;;;;;;5033754;28;20407;-68
2022/02/11 14:44:09;;;;;;;1.45;0.50;;;24.70;31.40;;;;;;5034146;28;20463;-69
2022/02/11 14:46:35;;;;;;;1.60;0.60;;;24.60;31.40;;;;;;5033997;28;20394;-66
2022/02/11 14:49:04;;;;;;;2.47;0.50;;;24.50;31.50;;;;;;5033786;28;20419;-66
2022/02/11 14:51:31;;;;;;;3.60;0.60;;;24.40;31.00;;;;;;5033388;28;20390;-67
2022/02/11 14:54:00;;;;;;;4.20;0.70;;;24.40;30.90;;;;;;5033735;28;20752;-67
2022/02/11 14:56:26;;;;;;;5.00;0.90;;;24.30;31.30;;;;;;5033611;28;20478;-68
2022/02/11 14:58:57;;;;;;;3.65;0.90;;;24.20;30.80;;;;;;5032916;28;20486;-67
2022/02/11 15:01:25;;;;;;;3.92;0.60;;;24.10;31.20;;;;;;5030155;28;20953;-67
2022/02/11 15:03:51;;;;;;;2.30;0.60;;;24.10;31.40;;;;;;5015827;28;20447;-71
2022/02/11 15:06:17;;;;;;;6.72;0.98;;;24.10;31.30;;;;;;5032991;28;20432;-68
2022/02/11 15:08:45;;;;;;;1.65;0.70;;;24.10;31.10;;;;;;5029555;28;20422;-68
2022/02/11 15:11:12;;;;;;;4.00;1.00;;;24.10;31.10;;;;;;5032185;28;20402;-68
2022/02/11 15:13:39;;;;;;;3.42;0.65;;;24.20;31.20;;;;;;5030497;28;20480;-67
2022/02/11 15:16:05;;;;;;;4.97;0.70;;;24.10;31.10;;;;;;5032554;28;20901;-67
2022/02/11 15:18:31;;;;;;;3.38;0.80;;;24.10;31.40;;;;;;5031642;28;20399;-67
2022/02/11 15:21:05;;;;;;;4.20;0.98;;;24.00;30.70;;;;;;5032385;28;20390;-67
2022/02/11 15:23:36;;;;;;;2.05;0.63;;;23.90;31.00;;;;;;5029260;28;20437;-67
2022/02/11 15:26:05;;;;;;;2.45;0.80;;;24.00;30.70;;;;;;5032089;28;20891;-67
2022/02/11 15:28:33;;;;;;;2.00;0.60;;;24.00;30.50;;;;;;5032136;28;20522;-67
2022/02/11 15:31:00;;;;;;;1.83;0.73;;;23.90;30.60;;;;;;5032007;28;20453;-66
2022/02/11 15:33:26;;;;;;;1.75;0.60;;;23.90;30.50;;;;;;5030614;28;20755;-67
2022/02/11 15:35:52;;;;;;;2.28;0.70;;;23.90;30.30;;;;;;5032187;28;20390;-67
2022/02/11 15:38:19;;;;;;;2.10;0.60;;;23.90;30.20;;;;;;5031788;28;20456;-67
2022/02/11 15:40:45;;;;;;;1.70;0.50;;;23.90;30.40;;;;;;5030679;28;20391;-67
2022/02/11 15:43:12;;;;;;;1.93;0.63;;;23.90;30.30;;;;;;5028722;28;20552;-76
2022/02/11 15:45:38;;;;;;;1.40;0.60;;;23.90;30.40;;;;;;5031557;28;20387;-66
2022/02/11 15:48:05;;;;;;;3.27;0.70;;;23.70;30.40;;;;;;5029030;28;20434;-66
2022/02/11 15:50:31;;;;;;;2.70;0.50;;;23.70;30.40;;;;;;5028172;28;20449;-75
2022/02/11 15:52:57;;;;;;;2.83;0.50;;;23.70;30.60;;;;;;5030812;28;20430;-76
2022/02/11 15:55:23;;;;;;;1.23;0.50;;;23.60;30.50;;;;;;5030090;28;20423;-67
2022/02/11 15:57:49;;;;;;;1.45;0.40;;;23.60;30.30;;;;;;5030208;28;20399;-71
2022/02/11 16:00:16;;;;;;;2.45;0.70;;;23.70;30.30;;;;;;5024841;28;20809;-67
2022/02/11 16:02:44;;;;;;;1.67;0.60;;;23.60;30.40;;;;;;5028504;28;20397;-66
2022/02/11 16:05:10;;;;;;;2.40;0.45;;;23.60;30.50;;;;;;5031739;28;20395;-67
2022/02/11 16:07:39;;;;;;;1.88;0.52;;;23.60;30.40;;;;;;5028467;28;20403;-67
2022/02/11 16:10:07;;;;;;;2.33;0.52;;;23.60;30.20;;;;;;5028828;28;20885;-68
2022/02/11 16:12:33;;;;;;;1.30;0.70;;;23.60;30.10;;;;;;5030166;28;20396;-71
2022/02/11 16:15:02;;;;;;;5.22;0.60;;;23.60;30.80;;;;;;5031457;28;20965;-71
2022/02/11 16:17:29;;;;;;;2.25;0.68;;;23.50;30.10;;;;;;5031415;28;20391;-67
2022/02/11 16:19:55;;;;;;;1.15;0.50;;;23.50;30.20;;;;;;5030066;28;20388;-71
2022/02/11 16:22:25;;;;;;;1.43;0.40;;;23.40;30.10;;;;;;5031468;28;20452;-67
2022/02/11 16:24:52;;;;;;;2.30;0.50;;;23.50;30.10;;;;;;5031246;28;20404;-66
2022/02/11 16:27:18;;;;;;;1.73;0.50;;;23.40;30.00;;;;;;5030985;28;20387;-66
2022/02/11 16:29:45;;;;;;;0.90;0.47;;;23.40;30.00;;;;;;5030551;28;20498;-67
2022/02/11 16:32:12;;;;;;;2.33;0.80;;;23.30;30.00;;;;;;5029686;28;20474;-66
2022/02/11 16:34:38;;;;;;;2.72;0.55;;;23.30;30.10;;;;;;5030714;28;20431;-66
2022/02/11 16:37:06;;;;;;;1.27;0.47;;;23.30;30.00;;;;;;5030925;28;20391;-66
2022/02/11 16:39:32;;;;;;;1.00;0.40;;;23.30;30.20;;;;;;5030184;28;20477;-66
2022/02/11 16:41:58;;;;;;;0.82;0.50;;;23.20;30.10;;;;;;5030970;28;20402;-66
2022/02/11 16:44:23;;;;;;;1.13;0.40;;;23.20;30.10;;;;;;5030774;28;20824;-66
2022/02/11 16:46:50;;;;;;;3.20;0.63;;;23.20;30.50;;;;;;5030917;28;20847;-66
2022/02/11 16:49:18;;;;;;;2.72;0.50;;;23.20;30.30;;;;;;5030801;28;20422;-66
2022/02/11 16:51:47;;;;;;;0.82;0.50;;;23.20;30.10;;;;;;5030370;28;20798;-66
2022/02/11 16:54:14;;;;;;;1.38;0.47;;;23.20;30.10;;;;;;5030843;28;20391;-67
2022/02/11 16:56:41;;;;;;;1.45;0.60;;;23.30;30.00;;;;;;5029442;28;20440;-67
2022/02/11 16:59:07;;;;;;;2.35;0.50;;;23.20;30.00;;;;;;5029315;28;20410;-67